createdAt,value
2019-05-25T00:00:57.049Z,6.87
2019-05-25T00:03:25.553Z,7.63
2019-05-25T00:05:54.103Z,8.73
2019-05-25T00:08:22.965Z,6.90
2019-05-25T00:10:51.536Z,7.90
2019-05-25T00:13:20.127Z,8.70
2019-05-25T00:15:48.648Z,7.87
2019-05-25T00:18:17.136Z,7.23
2019-05-25T00:20:45.731Z,8.33
2019-05-25T00:23:14.211Z,7.37
2019-05-25T00:25:42.773Z,7.33
2019-05-25T00:28:11.506Z,6.33
2019-05-25T00:30:40.253Z,6.67
2019-05-25T00:33:08.729Z,6.80
2019-05-25T00:35:37.197Z,6.37
2019-05-25T00:38:05.747Z,6.80
2019-05-25T00:40:34.282Z,6.80
2019-05-25T00:43:02.759Z,8.27
2019-05-25T00:45:31.271Z,6.10
2019-05-25T00:48:00.064Z,5.77
2019-05-25T00:50:28.530Z,6.73
2019-05-25T00:52:57.088Z,5.03
2019-05-25T00:55:25.833Z,8.67
2019-05-25T00:57:54.637Z,8.60
2019-05-25T01:00:23.243Z,6.73
2019-05-25T01:02:51.775Z,10.37
2019-05-25T01:05:20.419Z,7.70
2019-05-25T01:07:48.895Z,6.47
2019-05-25T01:10:17.809Z,6.50
2019-05-25T01:12:46.298Z,7.43
2019-05-25T01:15:15.221Z,6.17
2019-05-25T01:17:43.983Z,6.07
2019-05-25T01:20:12.861Z,6.93
2019-05-25T01:22:41.442Z,6.93
2019-05-25T01:25:11.918Z,6.30
2019-05-25T01:27:40.451Z,6.83
2019-05-25T01:30:11.539Z,9.07
2019-05-25T01:32:40.086Z,7.50
2019-05-25T01:35:08.787Z,7.00
2019-05-25T01:37:37.343Z,6.03
2019-05-25T01:40:07.451Z,7.13
2019-05-25T01:42:35.940Z,7.20
2019-05-25T01:45:06.454Z,6.50
2019-05-25T01:47:35.016Z,8.57
2019-05-25T01:50:03.938Z,7.33
2019-05-25T01:52:32.386Z,6.23
2019-05-25T01:55:00.868Z,7.10
2019-05-25T01:57:29.325Z,8.00
2019-05-25T01:59:57.880Z,5.90
2019-05-25T02:02:26.358Z,6.57
2019-05-25T02:04:54.915Z,5.90
2019-05-25T02:07:23.467Z,6.13
2019-05-25T02:09:52.204Z,7.80
2019-05-25T02:12:20.994Z,7.63
2019-05-25T02:14:49.478Z,6.37
2019-05-25T02:17:17.966Z,5.57
2019-05-25T02:19:46.478Z,5.40
2019-05-25T02:22:14.964Z,5.70
2019-05-25T02:24:43.457Z,6.30
2019-05-25T02:27:11.923Z,6.80
2019-05-25T02:29:40.395Z,6.40
2019-05-25T02:32:08.869Z,6.30
2019-05-25T02:34:37.332Z,6.37
2019-05-25T02:37:05.836Z,5.90
2019-05-25T02:39:34.447Z,5.70
2019-05-25T02:42:03.036Z,6.07
2019-05-25T02:44:31.524Z,9.07
2019-05-25T02:47:00.017Z,5.93
2019-05-25T02:49:28.747Z,6.73
2019-05-25T02:51:57.297Z,6.00
2019-05-25T02:54:25.789Z,7.33
2019-05-25T02:56:54.252Z,9.17
2019-05-25T02:59:22.745Z,5.33
2019-05-25T03:01:51.200Z,7.00
2019-05-25T03:04:19.731Z,7.00
2019-05-25T03:06:48.555Z,7.03
2019-05-25T03:09:18.969Z,5.37
2019-05-25T03:11:49.210Z,5.70
2019-05-25T03:14:18.806Z,6.10
2019-05-25T03:16:47.714Z,5.73
2019-05-25T03:19:16.331Z,6.00
2019-05-25T03:21:44.895Z,5.57
2019-05-25T03:24:13.393Z,6.73
2019-05-25T03:26:41.928Z,7.77
2019-05-25T03:29:10.397Z,8.00
2019-05-25T03:31:38.854Z,8.13
2019-05-25T03:34:07.494Z,8.37
2019-05-25T03:36:36.009Z,7.63
2019-05-25T03:39:07.140Z,5.70
2019-05-25T03:41:35.753Z,7.63
2019-05-25T03:44:04.294Z,5.90
2019-05-25T03:46:33.015Z,6.20
2019-05-25T03:49:01.496Z,5.90
2019-05-25T03:51:29.963Z,6.93
2019-05-25T03:53:58.457Z,6.47
2019-05-25T03:56:26.939Z,7.13
2019-05-25T03:58:55.399Z,7.47
2019-05-25T04:01:23.894Z,6.20
2019-05-25T04:03:52.389Z,6.90
2019-05-25T04:06:20.850Z,6.13
2019-05-25T04:08:49.323Z,5.70
2019-05-25T04:11:17.797Z,6.33
2019-05-25T04:13:46.293Z,7.63
2019-05-25T04:16:14.785Z,8.43
2019-05-25T04:18:43.238Z,6.93
2019-05-25T04:21:11.695Z,8.03
2019-05-25T04:23:40.439Z,6.77
2019-05-25T04:26:21.888Z,5.70
2019-05-25T04:28:39.152Z,7.40
2019-05-25T04:31:07.720Z,7.27
2019-05-25T04:33:36.203Z,6.90
2019-05-25T04:36:04.775Z,6.33
2019-05-25T04:38:33.250Z,6.93
2019-05-25T04:41:01.741Z,6.70
2019-05-25T04:43:30.205Z,7.13
2019-05-25T04:45:58.955Z,7.50
2019-05-25T04:48:27.504Z,6.23
2019-05-25T04:50:56.211Z,6.27
2019-05-25T04:53:24.687Z,7.53
2019-05-25T04:55:53.151Z,6.60
2019-05-25T04:58:21.634Z,11.80
2019-05-25T05:00:50.403Z,7.43
2019-05-25T05:03:18.873Z,6.67
2019-05-25T05:05:47.367Z,9.10
2019-05-25T05:08:15.818Z,9.83
2019-05-25T05:10:44.435Z,8.50
2019-05-25T05:13:12.899Z,6.67
2019-05-25T05:15:41.457Z,6.83
2019-05-25T05:18:09.913Z,7.93
2019-05-25T05:20:38.368Z,8.03
2019-05-25T05:23:06.870Z,8.93
2019-05-25T05:25:35.332Z,8.87
2019-05-25T05:28:03.865Z,9.63
2019-05-25T05:30:33.961Z,9.30
2019-05-25T05:33:02.603Z,7.03
2019-05-25T05:35:33.118Z,6.57
2019-05-25T05:38:04.277Z,7.40
2019-05-25T05:40:33.052Z,10.00
2019-05-25T05:43:04.627Z,8.27
2019-05-25T05:45:34.822Z,8.47
2019-05-25T05:48:04.523Z,8.67
2019-05-25T05:50:34.763Z,9.07
2019-05-25T05:53:03.902Z,9.57
2019-05-25T05:55:32.679Z,10.13
2019-05-25T05:58:02.361Z,11.13
2019-05-25T06:00:30.902Z,9.60
2019-05-25T06:02:59.383Z,9.77
2019-05-25T06:05:27.916Z,9.80
2019-05-25T06:07:56.398Z,10.20
2019-05-25T06:10:24.998Z,10.23
2019-05-25T06:12:53.525Z,11.80
2019-05-25T06:15:22.099Z,8.73
2019-05-25T06:17:50.634Z,10.37
2019-05-25T06:20:19.257Z,10.97
2019-05-25T06:22:48.028Z,10.27
2019-05-25T06:25:16.907Z,11.60
2019-05-25T06:27:45.436Z,9.17
2019-05-25T06:30:14.269Z,10.43
2019-05-25T06:32:42.720Z,10.43
2019-05-25T06:35:11.342Z,9.80
2019-05-25T06:37:39.787Z,10.80
2019-05-25T06:40:09.211Z,10.53
2019-05-25T06:42:37.765Z,9.63
2019-05-25T06:45:07.264Z,11.50
2019-05-25T06:47:35.901Z,14.17
2019-05-25T06:50:07.398Z,11.13
2019-05-25T06:52:35.879Z,11.40
2019-05-25T06:55:06.197Z,9.70
2019-05-25T06:57:43.049Z,10.80
2019-05-25T07:00:06.954Z,10.00
2019-05-25T07:02:35.437Z,9.57
2019-05-25T07:05:07.368Z,10.60
2019-05-25T07:07:35.922Z,13.87
2019-05-25T07:10:06.854Z,11.27
2019-05-25T07:12:35.588Z,12.03
2019-05-25T07:15:06.212Z,13.00
2019-05-25T07:17:34.700Z,11.70
2019-05-25T07:20:04.961Z,10.17
2019-05-25T07:22:33.427Z,11.50
2019-05-25T07:25:01.990Z,12.43
2019-05-25T07:27:30.568Z,13.40
2019-05-25T07:29:59.110Z,12.27
2019-05-25T07:32:27.617Z,10.30
2019-05-25T07:34:56.093Z,11.23
2019-05-25T07:37:24.570Z,12.43
2019-05-25T07:39:53.023Z,10.13
2019-05-25T07:42:21.598Z,10.67
2019-05-25T07:44:50.328Z,17.53
2019-05-25T07:47:18.796Z,12.97
2019-05-25T07:49:47.283Z,12.37
2019-05-25T07:52:15.766Z,11.17
2019-05-25T07:54:44.252Z,11.17
2019-05-25T07:57:12.980Z,11.60
2019-05-25T07:59:41.807Z,9.63
2019-05-25T08:02:10.279Z,10.63
2019-05-25T08:04:38.746Z,12.47
2019-05-25T08:07:07.247Z,8.37
2019-05-25T08:09:35.784Z,10.40
2019-05-25T08:12:04.649Z,11.53
2019-05-25T08:14:33.126Z,9.50
2019-05-25T08:17:01.646Z,9.20
2019-05-25T08:19:30.111Z,12.03
2019-05-25T08:21:58.629Z,9.70
2019-05-25T08:24:27.121Z,11.00
2019-05-25T08:26:55.602Z,10.33
2019-05-25T08:29:24.083Z,12.40
2019-05-25T08:31:52.796Z,9.60
2019-05-25T08:34:21.294Z,11.07
2019-05-25T08:36:49.776Z,12.07
2019-05-25T08:39:18.400Z,9.03
2019-05-25T08:41:46.874Z,11.40
2019-05-25T08:44:15.366Z,11.33
2019-05-25T08:46:43.827Z,10.67
2019-05-25T08:49:12.383Z,10.00
2019-05-25T08:51:40.869Z,11.23
2019-05-25T08:54:09.416Z,9.77
2019-05-25T08:56:37.894Z,10.10
2019-05-25T08:59:06.451Z,10.17
2019-05-25T09:01:34.957Z,10.67
2019-05-25T09:04:03.539Z,9.03
2019-05-25T09:06:31.986Z,9.10
2019-05-25T09:09:00.472Z,8.73
2019-05-25T09:11:28.935Z,8.63
2019-05-25T09:13:57.415Z,10.87
2019-05-25T09:16:25.895Z,9.20
2019-05-25T09:18:54.413Z,10.23
2019-05-25T09:21:23.027Z,9.67
2019-05-25T09:23:51.618Z,8.80
2019-05-25T09:26:20.240Z,8.63
2019-05-25T09:29:03.523Z,11.27
2019-05-25T09:31:18.981Z,10.17
2019-05-25T09:33:47.461Z,8.63
2019-05-25T09:36:16.013Z,11.67
2019-05-25T09:38:44.505Z,9.20
2019-05-25T09:41:13.058Z,9.27
2019-05-25T09:43:41.539Z,8.13
2019-05-25T09:46:10.284Z,8.70
2019-05-25T09:48:38.833Z,9.30
2019-05-25T09:51:15.425Z,9.77
2019-05-25T09:53:37.600Z,8.27
2019-05-25T09:56:06.225Z,7.47
2019-05-25T09:58:34.722Z,7.30
2019-05-25T10:01:03.177Z,9.63
2019-05-25T10:03:31.694Z,7.73
2019-05-25T10:06:00.268Z,8.97
2019-05-25T10:08:29.268Z,9.37
2019-05-25T10:10:58.226Z,8.37
2019-05-25T10:13:26.748Z,10.33
2019-05-25T10:15:55.207Z,8.13
2019-05-25T10:18:25.412Z,7.47
2019-05-25T10:20:54.128Z,8.90
2019-05-25T10:23:22.682Z,7.60
2019-05-25T10:25:51.596Z,8.17
2019-05-25T10:28:20.127Z,7.90
2019-05-25T10:30:48.608Z,7.37
2019-05-25T10:33:17.077Z,8.00
2019-05-25T10:35:45.642Z,8.43
2019-05-25T10:38:14.177Z,9.27
2019-05-25T10:40:42.902Z,7.60
2019-05-25T10:43:11.484Z,8.33
2019-05-25T10:45:40.137Z,9.13
2019-05-25T10:48:08.906Z,12.30
2019-05-25T10:50:37.434Z,9.20
2019-05-25T10:53:06.033Z,10.30
2019-05-25T10:55:34.486Z,7.50
2019-05-25T10:58:03.020Z,8.47
2019-05-25T11:00:31.661Z,7.60
2019-05-25T11:03:00.186Z,9.70
2019-05-25T11:05:28.677Z,8.77
2019-05-25T11:07:57.218Z,8.70
2019-05-25T11:10:25.990Z,9.87
2019-05-25T11:12:54.448Z,7.90
2019-05-25T11:15:23.066Z,6.67
2019-05-25T11:17:51.622Z,6.37
2019-05-25T11:20:21.219Z,3.77
2019-05-25T11:22:49.714Z,5.00
2019-05-25T11:25:18.517Z,4.23
2019-05-25T11:27:47.075Z,4.00
2019-05-25T11:30:16.407Z,3.17
2019-05-25T11:32:44.892Z,3.20
2019-05-25T11:35:14.006Z,3.50
2019-05-25T11:37:42.482Z,4.43
2019-05-25T11:40:12.614Z,4.90
2019-05-25T11:42:41.096Z,3.57
2019-05-25T11:45:10.306Z,4.10
2019-05-25T11:47:38.857Z,3.90
2019-05-25T11:50:08.733Z,2.97
2019-05-25T11:52:37.382Z,6.87
2019-05-25T11:55:11.165Z,3.83
2019-05-25T11:57:39.714Z,3.17
2019-05-25T12:00:24.957Z,4.40
2019-05-25T12:02:47.311Z,3.60
2019-05-25T12:05:16.122Z,2.73
2019-05-25T12:07:45.172Z,3.67
2019-05-25T12:10:15.489Z,4.13
2019-05-25T12:12:44.257Z,4.00
2019-05-25T12:15:13.946Z,5.30
2019-05-25T12:17:42.537Z,3.67
2019-05-25T12:20:11.990Z,3.30
2019-05-25T12:22:40.566Z,3.70
2019-05-25T12:25:09.486Z,3.93
2019-05-25T12:27:38.030Z,4.80
2019-05-25T12:30:09.658Z,6.03
2019-05-25T12:32:38.191Z,6.77
2019-05-25T12:35:07.975Z,4.23
2019-05-25T12:37:36.569Z,9.20
2019-05-25T12:40:08.003Z,5.10
2019-05-25T12:42:36.513Z,5.10
2019-05-25T12:45:06.359Z,5.63
2019-05-25T12:47:35.102Z,5.20
2019-05-25T12:50:05.308Z,7.67
2019-05-25T12:52:33.877Z,7.47
2019-05-25T12:55:02.425Z,8.47
2019-05-25T12:57:30.911Z,10.47
2019-05-25T13:00:14.116Z,9.60
2019-05-25T13:02:29.556Z,11.30
2019-05-25T13:04:58.065Z,11.27
2019-05-25T13:07:26.588Z,10.63
2019-05-25T13:09:55.071Z,10.90
2019-05-25T13:12:23.530Z,10.37
2019-05-25T13:14:51.996Z,8.20
2019-05-25T13:17:20.493Z,6.23
2019-05-25T13:19:48.964Z,6.83
2019-05-25T13:22:17.502Z,6.97
2019-05-25T13:24:46.359Z,7.87
2019-05-25T13:27:14.929Z,5.80
2019-05-25T13:29:43.392Z,5.17
2019-05-25T13:32:11.879Z,5.30
2019-05-25T13:34:41.328Z,5.73
2019-05-25T13:37:09.816Z,5.27
2019-05-25T13:39:38.272Z,7.00
2019-05-25T13:42:06.754Z,5.63
2019-05-25T13:44:35.239Z,5.70
2019-05-25T13:47:03.770Z,6.83
2019-05-25T13:49:32.267Z,5.30
2019-05-25T13:52:01.038Z,5.20
2019-05-25T13:54:29.650Z,4.73
2019-05-25T13:56:58.124Z,4.53
2019-05-25T13:59:26.648Z,4.33
2019-05-25T14:01:55.410Z,4.30
2019-05-25T14:04:24.009Z,3.70
2019-05-25T14:06:52.511Z,4.90
2019-05-25T14:09:21.109Z,3.20
2019-05-25T14:11:49.585Z,3.27
2019-05-25T14:14:18.198Z,3.43
2019-05-25T14:16:46.696Z,3.20
2019-05-25T14:19:15.284Z,3.60
2019-05-25T14:21:43.845Z,3.50
2019-05-25T14:24:12.663Z,3.40
2019-05-25T14:26:41.459Z,3.10
2019-05-25T14:29:10.016Z,2.90
2019-05-25T14:31:45.412Z,2.70
2019-05-25T14:34:09.008Z,5.10
2019-05-25T14:36:37.512Z,2.87
2019-05-25T14:39:08.412Z,2.60
2019-05-25T14:41:36.871Z,3.00
2019-05-25T14:44:05.491Z,3.70
2019-05-25T14:46:33.962Z,3.97
2019-05-25T14:49:02.455Z,4.63
2019-05-25T14:51:31.018Z,5.10
2019-05-25T14:53:59.484Z,5.40
2019-05-25T14:56:27.943Z,5.53
2019-05-25T14:58:56.428Z,5.20
2019-05-25T15:01:24.973Z,5.03
2019-05-25T15:03:53.461Z,4.90
2019-05-25T15:06:21.937Z,5.10
2019-05-25T15:08:50.392Z,4.50
2019-05-25T15:11:18.870Z,4.80
2019-05-25T15:13:47.349Z,6.60
2019-05-25T15:16:15.923Z,4.80
2019-05-25T15:18:44.379Z,4.70
2019-05-25T15:21:13.111Z,4.80
2019-05-25T15:23:41.639Z,4.83
2019-05-25T15:26:10.143Z,5.07
2019-05-25T15:28:38.615Z,4.63
2019-05-25T15:31:07.219Z,4.53
2019-05-25T15:33:35.793Z,5.30
2019-05-25T15:36:04.434Z,4.77
2019-05-25T15:38:32.975Z,5.67
2019-05-25T15:41:01.439Z,5.27
2019-05-25T15:43:29.942Z,5.23
2019-05-25T15:45:58.391Z,5.63
2019-05-25T15:48:26.952Z,5.30
2019-05-25T15:50:55.507Z,5.47
2019-05-25T15:53:24.013Z,5.23
2019-05-25T15:55:52.578Z,5.87
2019-05-25T15:58:21.159Z,6.77
2019-05-25T16:00:51.411Z,6.40
2019-05-25T16:03:21.022Z,9.37
2019-05-25T16:05:50.144Z,6.80
2019-05-25T16:08:19.588Z,7.10
2019-05-25T16:10:48.649Z,5.50
2019-05-25T16:13:17.465Z,9.80
2019-05-25T16:15:46.274Z,6.97
2019-05-25T16:18:14.818Z,7.40
2019-05-25T16:20:43.350Z,7.77
2019-05-25T16:23:11.841Z,6.30
2019-05-25T16:25:40.425Z,7.17
2019-05-25T16:28:08.932Z,8.20
2019-05-25T16:30:37.428Z,6.23
2019-05-25T16:33:14.630Z,7.10
2019-05-25T16:35:36.198Z,12.67
2019-05-25T16:38:04.818Z,19.00
2019-05-25T16:40:33.402Z,15.23
2019-05-25T16:43:02.032Z,13.77
2019-05-25T16:45:30.623Z,7.67
2019-05-25T16:47:59.229Z,5.80
2019-05-25T16:50:27.848Z,5.93
2019-05-25T16:52:56.705Z,4.90
2019-05-25T16:55:25.437Z,16.63
2019-05-25T16:57:53.912Z,6.93
2019-05-25T17:00:27.565Z,5.73
2019-05-25T17:02:57.051Z,5.50
2019-05-25T17:05:26.163Z,6.60
2019-05-25T17:07:54.697Z,5.13
2019-05-25T17:10:23.387Z,4.43
2019-05-25T17:12:51.841Z,5.77
2019-05-25T17:15:20.342Z,4.23
2019-05-25T17:17:48.794Z,5.60
2019-05-25T17:20:18.378Z,7.83
2019-05-25T17:22:46.907Z,7.80
2019-05-25T17:25:15.826Z,5.13
2019-05-25T17:27:44.394Z,4.60
2019-05-25T17:30:13.426Z,5.17
2019-05-25T17:32:41.941Z,4.90
2019-05-25T17:35:10.658Z,5.77
2019-05-25T17:37:39.157Z,5.27
2019-05-25T17:40:08.353Z,4.03
2019-05-25T17:42:36.904Z,4.13
2019-05-25T17:45:06.414Z,4.63
2019-05-25T17:47:35.406Z,5.00
2019-05-25T17:50:05.166Z,4.27
2019-05-25T17:52:33.661Z,4.43
2019-05-25T17:55:02.256Z,4.83
2019-05-25T17:57:30.808Z,6.33
2019-05-25T17:59:59.739Z,5.27
2019-05-25T18:02:28.354Z,6.23
2019-05-25T18:04:56.807Z,4.90
2019-05-25T18:07:25.390Z,5.03
2019-05-25T18:09:53.971Z,6.80
2019-05-25T18:12:22.538Z,5.17
2019-05-25T18:14:51.171Z,5.50
2019-05-25T18:17:20.053Z,5.47
2019-05-25T18:19:48.556Z,5.17
2019-05-25T18:22:17.095Z,5.93
2019-05-25T18:24:45.676Z,6.50
2019-05-25T18:27:14.149Z,8.60
2019-05-25T18:29:42.614Z,5.33
2019-05-25T18:32:11.070Z,7.03
2019-05-25T18:34:39.573Z,6.57
2019-05-25T18:37:08.036Z,7.17
2019-05-25T18:39:36.519Z,6.43
2019-05-25T18:42:05.392Z,7.67
2019-05-25T18:44:33.858Z,5.60
2019-05-25T18:47:02.339Z,5.80
2019-05-25T18:49:30.793Z,7.20
2019-05-25T18:51:59.293Z,6.00
2019-05-25T18:54:27.797Z,6.20
2019-05-25T18:56:56.631Z,9.07
2019-05-25T18:59:25.387Z,5.70
2019-05-25T19:01:53.866Z,7.17
2019-05-25T19:04:41.202Z,11.57
2019-05-25T19:06:52.857Z,8.37
2019-05-25T19:09:21.469Z,6.30
2019-05-25T19:11:50.284Z,5.90
2019-05-25T19:14:18.935Z,6.53
2019-05-25T19:16:47.459Z,6.20
2019-05-25T19:19:16.021Z,6.40
2019-05-25T19:21:44.536Z,5.10
2019-05-25T19:24:13.014Z,4.33
2019-05-25T19:26:41.528Z,4.67
2019-05-25T19:29:10.089Z,4.70
2019-05-25T19:31:38.559Z,4.70
2019-05-25T19:34:07.076Z,6.47
2019-05-25T19:36:35.612Z,16.00
2019-05-25T19:39:06.673Z,5.63
2019-05-25T19:41:35.445Z,6.73
2019-05-25T19:44:04.183Z,7.03
2019-05-25T19:46:32.738Z,6.50
2019-05-25T19:49:01.210Z,6.93
2019-05-25T19:51:29.748Z,7.07
2019-05-25T19:53:58.334Z,7.20
2019-05-25T19:56:26.868Z,10.93
2019-05-25T19:58:55.615Z,5.97
2019-05-25T20:01:24.244Z,9.23
2019-05-25T20:03:52.727Z,9.33
2019-05-25T20:06:21.279Z,7.13
2019-05-25T20:08:49.745Z,8.90
2019-05-25T20:11:18.237Z,6.87
2019-05-25T20:13:46.700Z,7.03
2019-05-25T20:16:15.174Z,6.13
2019-05-25T20:18:43.639Z,7.87
2019-05-25T20:21:12.117Z,6.60
2019-05-25T20:23:40.614Z,6.20
2019-05-25T20:26:09.163Z,5.70
2019-05-25T20:28:37.708Z,6.10
2019-05-25T20:31:06.239Z,5.63
2019-05-25T20:33:35.171Z,5.53
2019-05-25T20:36:03.766Z,6.03
2019-05-25T20:38:32.255Z,5.40
2019-05-25T20:41:00.745Z,6.27
2019-05-25T20:43:29.227Z,5.60
2019-05-25T20:45:57.711Z,4.40
2019-05-25T20:48:26.212Z,5.10
2019-05-25T20:50:54.696Z,4.47
2019-05-25T20:53:23.181Z,4.63
2019-05-25T20:55:51.661Z,3.97
2019-05-25T20:58:20.242Z,5.27
2019-05-25T21:00:48.877Z,4.60
2019-05-25T21:03:17.517Z,4.07
2019-05-25T21:05:50.742Z,3.63
2019-05-25T21:08:36.219Z,4.13
2019-05-25T21:11:04.953Z,4.27
2019-05-25T21:13:34.088Z,3.63
2019-05-25T21:16:02.740Z,3.97
2019-05-25T21:18:31.341Z,3.90
2019-05-25T21:21:00.051Z,3.63
2019-05-25T21:23:28.761Z,3.87
2019-05-25T21:25:57.591Z,3.50
2019-05-25T21:28:26.388Z,3.53
2019-05-25T21:30:55.181Z,3.30
2019-05-25T21:33:24.216Z,4.53
2019-05-25T21:36:06.870Z,3.50
2019-05-25T21:38:23.194Z,7.07
2019-05-25T21:40:51.797Z,3.83
2019-05-25T21:43:20.572Z,4.03
2019-05-25T21:45:49.097Z,5.50
2019-05-25T21:48:17.791Z,6.97
2019-05-25T21:50:46.482Z,6.40
2019-05-25T21:53:15.148Z,5.70
2019-05-25T21:55:43.771Z,4.87
2019-05-25T21:58:12.464Z,5.47
2019-05-25T22:00:41.353Z,5.23
2019-05-25T22:03:09.993Z,5.87
2019-05-25T22:05:38.766Z,7.77
2019-05-25T22:08:07.552Z,6.17
2019-05-25T22:10:36.247Z,6.00
2019-05-25T22:13:04.822Z,5.63
2019-05-25T22:15:33.475Z,5.80
2019-05-25T22:18:02.329Z,6.00
2019-05-25T22:20:31.003Z,5.77
2019-05-25T22:22:59.844Z,8.20
2019-05-25T22:25:28.530Z,6.20
2019-05-25T22:27:57.267Z,7.00
2019-05-25T22:30:25.980Z,6.93
2019-05-25T22:32:54.667Z,7.47
2019-05-25T22:35:23.221Z,6.20
2019-05-25T22:37:51.838Z,5.50
2019-05-25T22:40:20.454Z,5.20
2019-05-25T22:42:49.073Z,5.50
2019-05-25T22:45:17.635Z,4.90
2019-05-25T22:47:46.253Z,5.20
2019-05-25T22:50:15.199Z,5.30
2019-05-25T22:52:43.699Z,5.67
2019-05-25T22:55:12.266Z,5.50
2019-05-25T22:57:41.016Z,6.37
2019-05-25T23:00:10.032Z,7.27
2019-05-25T23:02:38.826Z,5.30
2019-05-25T23:05:07.719Z,5.70
2019-05-25T23:07:36.394Z,5.50
2019-05-25T23:10:09.230Z,5.83
2019-05-25T23:12:37.778Z,5.60
2019-05-25T23:15:08.146Z,5.50
2019-05-25T23:17:37.335Z,5.57
2019-05-25T23:20:07.295Z,6.73
2019-05-25T23:22:36.038Z,7.00
2019-05-25T23:25:04.946Z,6.03
2019-05-25T23:27:33.780Z,5.40
2019-05-25T23:30:02.587Z,5.53
2019-05-25T23:32:31.409Z,7.40
2019-05-25T23:35:00.257Z,4.80
2019-05-25T23:37:28.991Z,5.10
2019-05-25T23:39:57.717Z,5.00
2019-05-25T23:42:26.442Z,4.97
2019-05-25T23:44:55.524Z,6.17
2019-05-25T23:47:24.357Z,4.87
2019-05-25T23:49:53.098Z,5.30
2019-05-25T23:52:21.852Z,6.07
2019-05-25T23:54:50.451Z,5.40
2019-05-25T23:57:19.092Z,6.50
2019-05-25T23:59:47.649Z,5.60
